createdAt,value
2022-10-07T00:01:04.981Z,4.38
2022-10-07T00:03:32.496Z,3.70
2022-10-07T00:06:07.519Z,3.97
2022-10-07T00:08:39.244Z,4.03
2022-10-07T00:11:13.630Z,4.13
2022-10-07T00:13:43.478Z,4.25
2022-10-07T00:16:20.882Z,3.33
2022-10-07T00:18:51.701Z,3.78
2022-10-07T00:21:19.926Z,4.25
2022-10-07T00:23:48.459Z,3.38
2022-10-07T00:26:22.264Z,3.38
2022-10-07T00:28:49.962Z,3.88
2022-10-07T00:31:21.000Z,4.45
2022-10-07T00:33:48.994Z,3.58
2022-10-07T00:36:20.649Z,3.47
2022-10-07T00:38:59.779Z,4.10
2022-10-07T00:41:42.936Z,4.28
2022-10-07T00:44:41.871Z,3.83
2022-10-07T00:47:25.468Z,3.83
2022-10-07T00:50:07.163Z,3.55
2022-10-07T00:52:40.426Z,3.10
2022-10-07T00:55:14.903Z,3.42
2022-10-07T00:57:43.259Z,3.55
2022-10-07T01:00:12.740Z,4.03
2022-10-07T01:02:40.128Z,3.90
2022-10-07T01:05:09.710Z,3.95
2022-10-07T01:07:38.141Z,3.65
2022-10-07T01:10:07.393Z,3.63
2022-10-07T01:13:42.159Z,3.83
2022-10-07T01:16:32.845Z,4.40
2022-10-07T01:19:27.432Z,4.07
2022-10-07T01:22:31.304Z,4.47
2022-10-07T01:25:41.924Z,4.80
2022-10-07T01:28:21.217Z,4.38
2022-10-07T01:30:55.435Z,3.30
2022-10-07T01:33:30.932Z,3.75
2022-10-07T01:36:22.458Z,3.90
2022-10-07T01:38:56.701Z,3.47
2022-10-07T01:41:24.331Z,3.03
2022-10-07T01:43:54.791Z,3.20
2022-10-07T01:46:26.689Z,3.80
2022-10-07T01:48:57.280Z,3.37
2022-10-07T01:51:30.365Z,2.83
2022-10-07T01:54:25.324Z,3.53
2022-10-07T02:00:07.016Z,3.65
2022-10-07T02:03:34.877Z,3.05
2022-10-07T02:08:57.130Z,3.30
2022-10-07T02:11:30.916Z,2.83
2022-10-07T02:14:36.847Z,3.13
2022-10-07T02:17:15.178Z,3.25
2022-10-07T02:19:53.434Z,2.97
2022-10-07T02:22:25.971Z,3.00
2022-10-07T02:24:59.096Z,2.88
2022-10-07T02:27:37.606Z,3.00
2022-10-07T02:30:18.474Z,3.13
2022-10-07T02:32:53.951Z,3.28
2022-10-07T02:35:32.220Z,3.10
2022-10-07T02:38:07.492Z,4.70
2022-10-07T02:43:39.091Z,2.65
2022-10-07T02:46:16.728Z,3.47
2022-10-07T02:48:54.124Z,3.60
2022-10-07T02:51:25.592Z,3.13
2022-10-07T02:53:55.435Z,2.95
2022-10-07T02:56:26.966Z,3.15
2022-10-07T02:58:55.045Z,3.00
2022-10-07T03:01:30.597Z,3.33
2022-10-07T03:03:58.395Z,3.75
2022-10-07T03:06:26.760Z,4.15
2022-10-07T03:08:54.053Z,3.22
2022-10-07T03:11:20.937Z,3.83
2022-10-07T03:13:47.748Z,4.00
2022-10-07T03:16:15.073Z,3.60
2022-10-07T03:18:42.044Z,3.20
2022-10-07T03:21:22.612Z,3.45
2022-10-07T03:23:53.863Z,3.17
2022-10-07T03:26:23.870Z,3.53
2022-10-07T03:28:51.513Z,3.95
2022-10-07T03:31:19.622Z,3.35
2022-10-07T03:33:49.130Z,3.70
2022-10-07T03:36:17.796Z,3.67
2022-10-07T03:38:46.903Z,4.10
2022-10-07T03:41:15.001Z,3.50
2022-10-07T03:43:42.271Z,3.72
2022-10-07T03:46:11.227Z,3.28
2022-10-07T03:48:39.403Z,3.80
2022-10-07T03:51:07.196Z,3.55
2022-10-07T03:53:38.793Z,4.47
2022-10-07T03:56:06.577Z,3.70
2022-10-07T03:58:34.741Z,4.00
2022-10-07T04:01:14.548Z,3.67
2022-10-07T04:03:48.527Z,4.13
2022-10-07T04:06:15.524Z,3.40
2022-10-07T04:08:44.841Z,3.90
2022-10-07T04:11:12.499Z,3.45
2022-10-07T04:13:42.125Z,4.18
2022-10-07T04:16:13.176Z,4.07
2022-10-07T04:18:43.583Z,3.58
2022-10-07T04:21:11.568Z,4.30
2022-10-07T04:23:41.364Z,3.70
2022-10-07T04:26:10.480Z,4.40
2022-10-07T04:28:40.649Z,4.28
2022-10-07T04:31:12.090Z,3.80
2022-10-07T04:33:46.360Z,3.83
2022-10-07T04:36:18.416Z,4.70
2022-10-07T04:38:51.187Z,4.60
2022-10-07T04:41:22.353Z,3.45
2022-10-07T04:43:57.526Z,3.35
2022-10-07T04:46:28.294Z,4.15
2022-10-07T04:49:00.824Z,4.27
2022-10-07T04:51:29.595Z,3.63
2022-10-07T04:53:58.560Z,4.13
2022-10-07T04:56:31.434Z,4.95
2022-10-07T04:59:00.483Z,3.85
2022-10-07T05:01:28.441Z,3.75
2022-10-07T05:03:55.560Z,4.05
2022-10-07T05:06:22.779Z,4.88
2022-10-07T05:08:49.923Z,3.85
2022-10-07T05:11:16.884Z,4.88
2022-10-07T05:13:52.548Z,4.50
2022-10-07T05:16:21.154Z,4.50
2022-10-07T05:18:48.110Z,4.30
2022-10-07T05:21:16.435Z,4.63
2022-10-07T05:23:49.054Z,4.45
2022-10-07T05:26:21.618Z,4.50
2022-10-07T05:28:53.703Z,4.95
2022-10-07T05:31:27.904Z,4.60
2022-10-07T05:33:59.828Z,4.18
2022-10-07T05:36:27.431Z,4.28
2022-10-07T05:38:58.525Z,3.83
2022-10-07T05:41:45.797Z,3.85
2022-10-07T05:44:17.746Z,4.07
2022-10-07T05:47:02.400Z,4.05
2022-10-07T05:49:30.812Z,4.93
2022-10-07T05:51:58.431Z,4.57
2022-10-07T05:54:41.261Z,4.35
2022-10-07T05:57:24.168Z,4.90
2022-10-07T06:03:34.710Z,4.75
2022-10-07T06:06:01.715Z,5.03
2022-10-07T06:08:29.901Z,4.13
2022-10-07T06:11:24.937Z,4.18
2022-10-07T06:13:55.107Z,4.90
2022-10-07T06:16:24.774Z,5.18
2022-10-07T06:19:00.230Z,4.55
2022-10-07T06:21:30.128Z,4.70
2022-10-07T06:24:04.887Z,6.15
2022-10-07T06:26:34.849Z,5.90
2022-10-07T06:29:04.973Z,7.75
2022-10-07T06:31:32.686Z,11.75
2022-10-07T06:34:05.741Z,9.10
2022-10-07T06:36:36.864Z,6.90
2022-10-07T06:39:04.550Z,6.63
2022-10-07T06:41:37.190Z,6.93
2022-10-07T06:44:17.961Z,6.85
2022-10-07T06:46:45.442Z,6.65
2022-10-07T06:49:12.432Z,6.80
2022-10-07T06:51:39.767Z,5.82
2022-10-07T06:54:09.310Z,6.18
2022-10-07T06:56:36.689Z,8.30
2022-10-07T06:59:04.263Z,7.60
2022-10-07T07:01:38.857Z,6.18
2022-10-07T07:04:05.751Z,7.55
2022-10-07T07:06:37.599Z,8.23
2022-10-07T07:09:09.856Z,8.57
2022-10-07T07:11:43.466Z,8.60
2022-10-07T07:14:26.966Z,7.45
2022-10-07T07:17:00.970Z,8.00
2022-10-07T07:19:28.179Z,7.00
2022-10-07T07:21:59.370Z,9.45
2022-10-07T07:24:27.802Z,8.30
2022-10-07T07:26:54.942Z,7.93
2022-10-07T07:29:24.340Z,8.15
2022-10-07T07:31:55.537Z,9.00
2022-10-07T07:34:40.430Z,10.02
2022-10-07T07:37:10.540Z,7.93
2022-10-07T07:39:44.530Z,8.45
2022-10-07T07:42:14.988Z,7.97
2022-10-07T07:44:43.274Z,8.38
2022-10-07T07:47:12.975Z,9.60
2022-10-07T07:49:40.213Z,7.93
2022-10-07T07:52:10.660Z,8.93
2022-10-07T07:54:45.265Z,8.20
2022-10-07T08:00:10.538Z,9.73
2022-10-07T08:03:23.716Z,9.40
2022-10-07T08:09:13.037Z,9.15
2022-10-07T08:11:45.531Z,8.60
2022-10-07T08:14:18.007Z,8.00
2022-10-07T08:17:14.528Z,7.63
2022-10-07T08:20:27.583Z,6.90
2022-10-07T08:22:58.890Z,6.55
2022-10-07T08:25:28.628Z,6.03
2022-10-07T08:27:59.999Z,6.28
2022-10-07T08:30:28.077Z,5.30
2022-10-07T08:33:03.554Z,4.80
2022-10-07T08:35:30.846Z,4.78
2022-10-07T08:37:58.051Z,4.82
2022-10-07T08:40:25.209Z,4.13
2022-10-07T08:42:54.023Z,4.50
2022-10-07T08:45:33.768Z,4.80
2022-10-07T08:48:11.537Z,4.45
2022-10-07T08:51:15.364Z,4.38
2022-10-07T08:53:44.534Z,4.35
2022-10-07T08:56:18.193Z,4.15
2022-10-07T08:59:09.291Z,3.83
2022-10-07T09:01:51.116Z,4.28
2022-10-07T09:05:00.474Z,3.28
2022-10-07T09:07:45.596Z,3.58
2022-10-07T09:10:32.972Z,3.63
2022-10-07T09:13:03.583Z,3.35
2022-10-07T09:16:30.211Z,3.47
2022-10-07T09:19:03.896Z,3.20
2022-10-07T09:21:47.830Z,3.03
2022-10-07T09:24:24.508Z,2.80
2022-10-07T09:26:59.162Z,3.17
2022-10-07T09:29:30.539Z,3.40
2022-10-07T09:31:58.275Z,3.78
2022-10-07T09:34:29.854Z,3.05
2022-10-07T09:37:24.869Z,3.20
2022-10-07T09:40:22.550Z,3.65
2022-10-07T09:42:50.659Z,2.60
2022-10-07T09:45:47.212Z,2.47
2022-10-07T09:48:36.167Z,3.15
2022-10-07T09:51:26.982Z,2.45
2022-10-07T09:54:04.447Z,2.60
2022-10-07T09:56:46.390Z,3.17
2022-10-07T09:59:42.315Z,2.72
2022-10-07T10:02:20.988Z,2.92
2022-10-07T10:04:52.731Z,2.83
2022-10-07T10:07:44.637Z,2.45
2022-10-07T10:10:27.405Z,2.45
2022-10-07T10:12:58.362Z,2.85
2022-10-07T10:15:39.157Z,2.50
2022-10-07T10:18:39.840Z,2.80
2022-10-07T10:21:25.218Z,2.25
2022-10-07T10:27:01.465Z,2.28
2022-10-07T10:29:43.199Z,1.92
2022-10-07T10:32:32.247Z,2.10
2022-10-07T10:35:03.035Z,2.20
2022-10-07T10:37:41.873Z,2.15
2022-10-07T10:40:29.023Z,2.20
2022-10-07T10:43:25.539Z,2.20
2022-10-07T10:46:21.443Z,1.92
2022-10-07T10:48:58.861Z,2.03
2022-10-07T10:51:59.347Z,2.08
2022-10-07T10:54:54.533Z,2.00
2022-10-07T10:57:46.659Z,2.15
2022-10-07T11:00:20.698Z,2.00
2022-10-07T11:03:00.831Z,2.25
2022-10-07T11:05:56.241Z,1.60
2022-10-07T11:08:37.642Z,1.70
2022-10-07T11:11:17.318Z,2.40
2022-10-07T11:14:05.506Z,1.50
2022-10-07T11:16:49.396Z,1.90
2022-10-07T11:19:46.723Z,2.35
2022-10-07T11:22:32.348Z,2.03
2022-10-07T11:25:13.523Z,2.08
2022-10-07T11:27:45.294Z,1.90
2022-10-07T11:30:23.041Z,1.88
2022-10-07T11:33:11.777Z,2.20
2022-10-07T11:35:49.281Z,1.98
2022-10-07T11:38:25.823Z,2.10
2022-10-07T11:41:02.671Z,1.88
2022-10-07T11:43:40.227Z,2.33
2022-10-07T11:46:36.311Z,2.08
2022-10-07T11:49:39.518Z,1.98
2022-10-07T11:52:19.913Z,1.67
2022-10-07T11:55:10.385Z,1.77
2022-10-07T11:57:43.564Z,1.70
2022-10-07T12:00:25.410Z,2.10
2022-10-07T12:02:57.642Z,2.08
2022-10-07T12:05:36.693Z,1.92
2022-10-07T12:08:34.176Z,1.92
2022-10-07T12:11:13.145Z,2.50
2022-10-07T12:13:52.695Z,2.22
2022-10-07T12:16:43.049Z,2.40
2022-10-07T12:19:12.704Z,2.10
2022-10-07T12:22:04.680Z,2.20
2022-10-07T12:24:37.387Z,2.30
2022-10-07T12:27:30.441Z,2.03
2022-10-07T12:30:00.208Z,2.10
2022-10-07T12:32:53.000Z,2.30
2022-10-07T12:35:34.596Z,2.45
2022-10-07T12:38:26.287Z,1.98
2022-10-07T12:41:43.170Z,2.33
2022-10-07T12:44:32.971Z,2.00
2022-10-07T12:47:16.281Z,2.03
2022-10-07T12:49:58.548Z,2.00
2022-10-07T12:52:52.870Z,2.70
2022-10-07T12:55:37.198Z,2.55
2022-10-07T12:58:39.318Z,1.70
2022-10-07T13:01:45.615Z,2.10
2022-10-07T13:05:10.384Z,2.20
2022-10-07T13:08:13.393Z,2.47
2022-10-07T13:11:16.533Z,2.60
2022-10-07T13:14:17.043Z,1.80
2022-10-07T13:16:57.345Z,1.60
2022-10-07T13:19:36.520Z,2.10
2022-10-07T13:22:16.887Z,2.10
2022-10-07T13:24:51.011Z,1.92
2022-10-07T13:27:28.580Z,1.95
2022-10-07T13:30:00.292Z,1.48
2022-10-07T13:32:34.545Z,1.60
2022-10-07T13:35:36.273Z,1.90
2022-10-07T13:38:05.722Z,1.70
2022-10-07T13:40:35.924Z,1.88
2022-10-07T13:43:08.948Z,1.92
2022-10-07T13:45:44.942Z,1.58
2022-10-07T13:48:27.002Z,1.42
2022-10-07T13:50:59.563Z,2.22
2022-10-07T13:53:36.457Z,1.80
2022-10-07T13:56:26.987Z,1.40
2022-10-07T13:58:57.187Z,1.70
2022-10-07T14:01:29.542Z,1.65
2022-10-07T14:04:18.008Z,1.95
2022-10-07T14:07:06.374Z,1.40
2022-10-07T14:09:46.166Z,2.00
2022-10-07T14:12:24.962Z,1.80
2022-10-07T14:14:59.677Z,1.63
2022-10-07T14:20:25.096Z,1.85
2022-10-07T14:22:56.969Z,1.95
2022-10-07T14:25:38.054Z,1.67
2022-10-07T14:28:18.256Z,1.50
2022-10-07T14:31:26.826Z,2.00
2022-10-07T14:34:35.116Z,1.60
2022-10-07T14:37:19.591Z,1.55
2022-10-07T14:39:49.538Z,1.92
2022-10-07T14:42:32.140Z,3.78
2022-10-07T14:45:02.615Z,2.95
2022-10-07T14:47:37.160Z,2.80
2022-10-07T14:50:04.556Z,2.30
2022-10-07T14:52:43.710Z,1.98
2022-10-07T14:55:26.356Z,2.63
2022-10-07T14:57:53.507Z,1.70
2022-10-07T15:00:29.398Z,1.73
2022-10-07T15:02:58.162Z,2.10
2022-10-07T15:05:26.499Z,1.50
2022-10-07T15:07:53.387Z,1.50
2022-10-07T15:10:25.233Z,1.60
2022-10-07T15:12:52.889Z,1.90
2022-10-07T15:15:20.223Z,1.45
2022-10-07T15:17:47.959Z,1.60
2022-10-07T15:20:16.739Z,1.45
2022-10-07T15:22:45.362Z,1.40
2022-10-07T15:25:15.137Z,1.35
2022-10-07T15:27:42.665Z,1.27
2022-10-07T15:30:11.128Z,1.10
2022-10-07T15:32:37.920Z,1.30
2022-10-07T15:35:05.512Z,1.40
2022-10-07T15:37:33.619Z,1.45
2022-10-07T15:40:00.827Z,1.00
2022-10-07T15:42:28.034Z,1.00
2022-10-07T15:44:55.027Z,1.20
2022-10-07T15:47:21.921Z,1.30
2022-10-07T15:49:49.531Z,1.00
2022-10-07T15:52:16.592Z,1.25
2022-10-07T15:54:46.401Z,1.60
2022-10-07T15:57:14.316Z,1.63
2022-10-07T15:59:42.152Z,1.40
2022-10-07T16:02:18.851Z,1.20
2022-10-07T16:04:47.264Z,1.30
2022-10-07T16:07:15.991Z,1.08
2022-10-07T16:09:42.934Z,1.40
2022-10-07T16:12:10.078Z,1.80
2022-10-07T16:14:37.024Z,1.35
2022-10-07T16:17:04.196Z,1.98
2022-10-07T16:19:31.146Z,1.58
2022-10-07T16:21:57.996Z,1.98
2022-10-07T16:24:24.974Z,1.30
2022-10-07T16:26:53.128Z,1.90
2022-10-07T16:29:42.769Z,2.10
2022-10-07T16:32:11.530Z,1.90
2022-10-07T16:34:43.387Z,1.70
2022-10-07T16:37:11.323Z,1.80
2022-10-07T16:39:38.379Z,1.80
2022-10-07T16:42:05.743Z,1.83
2022-10-07T16:44:32.590Z,2.50
2022-10-07T16:47:03.027Z,1.63
2022-10-07T16:49:31.831Z,1.73
2022-10-07T16:51:58.808Z,1.75
2022-10-07T16:54:29.729Z,1.65
2022-10-07T16:56:58.363Z,1.67
2022-10-07T16:59:26.028Z,1.55
2022-10-07T17:01:57.340Z,1.52
2022-10-07T17:04:25.389Z,1.65
2022-10-07T17:06:53.241Z,1.80
2022-10-07T17:09:21.791Z,1.92
2022-10-07T17:11:48.781Z,1.92
2022-10-07T17:14:19.171Z,1.80
2022-10-07T17:16:53.197Z,1.90
2022-10-07T17:19:24.019Z,1.80
2022-10-07T17:21:52.891Z,2.15
2022-10-07T17:24:22.279Z,2.08
2022-10-07T17:26:50.520Z,1.70
2022-10-07T17:29:20.750Z,1.55
2022-10-07T17:31:50.789Z,1.42
2022-10-07T17:34:20.894Z,2.05
2022-10-07T17:36:50.166Z,1.95
2022-10-07T17:39:19.263Z,1.75
2022-10-07T17:41:49.487Z,1.98
2022-10-07T17:44:16.803Z,1.83
2022-10-07T17:46:44.004Z,2.15
2022-10-07T17:49:15.056Z,2.10
2022-10-07T17:51:43.311Z,2.10
2022-10-07T17:54:13.653Z,2.20
2022-10-07T17:56:43.532Z,2.38
2022-10-07T17:59:10.611Z,2.58
2022-10-07T18:01:37.949Z,2.63
2022-10-07T18:04:09.982Z,2.38
2022-10-07T18:06:39.110Z,1.98
2022-10-07T18:09:09.318Z,2.35
2022-10-07T18:11:55.147Z,2.55
2022-10-07T18:14:40.936Z,2.50
2022-10-07T18:17:10.133Z,2.58
2022-10-07T18:19:39.739Z,2.50
2022-10-07T18:22:07.338Z,3.40
2022-10-07T18:24:34.497Z,2.78
2022-10-07T18:27:02.034Z,3.25
2022-10-07T18:29:32.802Z,2.80
2022-10-07T18:32:00.868Z,3.50
2022-10-07T18:34:28.035Z,4.07
2022-10-07T18:36:56.933Z,5.00
2022-10-07T18:39:29.485Z,4.68
2022-10-07T18:41:57.930Z,4.85
2022-10-07T18:44:25.164Z,6.03
2022-10-07T18:46:52.582Z,5.43
2022-10-07T18:49:19.548Z,5.30
2022-10-07T18:51:47.324Z,6.80
2022-10-07T18:54:14.326Z,6.80
2022-10-07T18:56:42.273Z,6.03
2022-10-07T18:59:13.269Z,6.30
2022-10-07T19:01:40.835Z,5.68
2022-10-07T19:04:09.674Z,5.45
2022-10-07T19:06:43.829Z,6.57
2022-10-07T19:09:18.712Z,5.80
2022-10-07T19:11:46.036Z,6.00
2022-10-07T19:14:13.924Z,5.70
2022-10-07T19:16:45.276Z,5.90
2022-10-07T19:19:24.073Z,5.95
2022-10-07T19:21:54.893Z,6.32
2022-10-07T19:24:42.793Z,6.75
2022-10-07T19:27:09.625Z,6.20
2022-10-07T19:29:36.466Z,6.55
2022-10-07T19:32:08.000Z,6.93
2022-10-07T19:34:35.748Z,7.93
2022-10-07T19:37:02.817Z,9.00
2022-10-07T19:39:29.710Z,9.23
2022-10-07T19:41:58.676Z,8.05
2022-10-07T19:44:26.009Z,7.32
2022-10-07T19:46:54.297Z,6.88
2022-10-07T19:49:22.314Z,8.65
2022-10-07T19:51:49.282Z,7.32
2022-10-07T19:54:16.203Z,7.05
2022-10-07T19:56:45.166Z,8.10
2022-10-07T19:59:14.574Z,7.68
2022-10-07T20:01:44.552Z,7.53
2022-10-07T20:04:14.231Z,7.57
2022-10-07T20:06:42.426Z,8.50
2022-10-07T20:09:16.338Z,7.25
2022-10-07T20:11:43.577Z,8.35
2022-10-07T20:14:10.661Z,8.55
2022-10-07T20:16:39.027Z,9.15
2022-10-07T20:19:10.961Z,8.90
2022-10-07T20:21:39.384Z,9.27
2022-10-07T20:24:08.928Z,8.40
2022-10-07T20:26:38.304Z,9.85
2022-10-07T20:29:07.788Z,8.93
2022-10-07T20:31:39.086Z,9.05
2022-10-07T20:34:10.171Z,9.80
2022-10-07T20:36:38.884Z,10.95
2022-10-07T20:39:37.285Z,11.48
2022-10-07T20:42:21.131Z,11.63
2022-10-07T20:44:49.562Z,11.77
2022-10-07T20:47:17.537Z,11.70
2022-10-07T20:49:44.595Z,11.63
2022-10-07T20:52:17.119Z,12.15
2022-10-07T20:54:45.669Z,12.90
2022-10-07T20:57:16.309Z,11.60
2022-10-07T20:59:44.181Z,11.52
2022-10-07T21:02:13.537Z,12.55
2022-10-07T21:04:40.796Z,13.00
2022-10-07T21:07:08.744Z,12.88
2022-10-07T21:09:39.892Z,12.73
2022-10-07T21:12:13.561Z,13.45
2022-10-07T21:14:42.990Z,13.57
2022-10-07T21:17:11.178Z,13.05
2022-10-07T21:19:38.541Z,14.15
2022-10-07T21:22:06.807Z,13.48
2022-10-07T21:24:36.746Z,12.02
2022-10-07T21:27:07.183Z,13.75
2022-10-07T21:29:39.192Z,14.02
2022-10-07T21:32:09.343Z,14.63
2022-10-07T21:34:36.920Z,15.02
2022-10-07T21:37:04.783Z,17.02
2022-10-07T21:39:31.812Z,16.77
2022-10-07T21:41:59.739Z,15.88
2022-10-07T21:44:27.459Z,15.73
2022-10-07T21:46:54.725Z,14.55
2022-10-07T21:49:21.562Z,14.82
2022-10-07T21:51:48.474Z,14.82
2022-10-07T21:54:15.554Z,14.38
2022-10-07T21:56:45.936Z,14.68
2022-10-07T21:59:14.130Z,14.88
2022-10-07T22:01:42.446Z,14.25
2022-10-07T22:04:17.926Z,14.70
2022-10-07T22:07:04.211Z,14.48
2022-10-07T22:09:31.391Z,13.38
2022-10-07T22:11:58.656Z,12.95
2022-10-07T22:14:25.616Z,18.80
2022-10-07T22:16:52.500Z,16.88
2022-10-07T22:19:19.300Z,16.30
2022-10-07T22:21:46.251Z,16.58
2022-10-07T22:24:14.124Z,16.75
2022-10-07T22:26:47.015Z,17.92
2022-10-07T22:29:16.484Z,17.00
2022-10-07T22:31:43.977Z,15.95
2022-10-07T22:34:33.833Z,17.08
2022-10-07T22:37:01.734Z,14.90
2022-10-07T22:39:29.598Z,15.48
2022-10-07T22:41:58.567Z,16.42
2022-10-07T22:44:28.600Z,16.02
2022-10-07T22:46:57.165Z,16.40
2022-10-07T22:49:28.743Z,16.17
2022-10-07T22:51:58.226Z,15.65
2022-10-07T22:54:25.884Z,15.35
2022-10-07T22:56:52.919Z,15.52
2022-10-07T22:59:21.146Z,15.45
2022-10-07T23:01:47.983Z,17.23
2022-10-07T23:04:14.972Z,16.02
2022-10-07T23:06:42.078Z,16.15
2022-10-07T23:09:09.148Z,15.43
2022-10-07T23:11:36.142Z,14.98
2022-10-07T23:14:02.995Z,15.13
2022-10-07T23:16:30.334Z,14.93
2022-10-07T23:18:58.906Z,14.32
2022-10-07T23:21:28.775Z,14.38
2022-10-07T23:24:05.918Z,14.48
2022-10-07T23:26:34.183Z,14.75
2022-10-07T23:29:01.661Z,14.68
2022-10-07T23:31:31.668Z,15.70
2022-10-07T23:34:02.009Z,13.93
2022-10-07T23:36:30.296Z,15.77
2022-10-07T23:39:00.150Z,14.70
2022-10-07T23:41:29.672Z,14.90
2022-10-07T23:43:59.484Z,14.27
2022-10-07T23:46:28.554Z,13.75
2022-10-07T23:48:56.116Z,15.00
2022-10-07T23:51:26.041Z,13.55
2022-10-07T23:53:55.335Z,14.02
2022-10-07T23:56:22.196Z,14.15
2022-10-07T23:58:49.071Z,14.57
